Terminal Aerodrome Forecast
Issued by NWS Charleston, WV

Current Version | Previous Version | Graphics & Text | Print | Product List | Glossary On
Versions: 1 2 3 4 5 6 7 8 9 10 11 12 13 14 15 16 17 18 19 20 21 22 23 24 25 26 27 28 29
000
FTUS41 KRLX 302300 RRA
TAFEKN
TAF
KEKN 302347Z 3100/3124 33013G20KT P6SM -SHSN OVC025
      TEMPO 3100/3102 2SM -SHSN OVC035
     FM310500 29010G16KT P6SM BKN025
     FM310600 29009G15KT P6SM SCT015
     FM311800 27006KT P6SM BKN250=

USA.gov is the U.S. government's official web portal to all federal, state and local government web resources and services.